createdAt,value
2023-03-16T00:01:16.496Z,100845.25
2023-03-16T00:03:47.554Z,100843.97
2023-03-16T00:06:18.166Z,100843.50
2023-03-16T00:08:48.057Z,100841.50
2023-03-16T00:11:18.642Z,100846.28
2023-03-16T00:13:48.592Z,100838.69
2023-03-16T00:16:20.961Z,100841.50
2023-03-16T00:18:51.763Z,100837.09
2023-03-16T00:21:22.321Z,100836.25
2023-03-16T00:23:53.844Z,100833.81
2023-03-16T00:26:24.499Z,100836.94
2023-03-16T00:28:55.370Z,100825.63
2023-03-16T00:31:27.938Z,100828.41
2023-03-16T00:33:57.947Z,100824.31
2023-03-16T00:36:28.191Z,100833.09
2023-03-16T00:38:59.011Z,100834.25
2023-03-16T00:41:28.882Z,100835.03
2023-03-16T00:44:02.850Z,100828.63
2023-03-16T00:46:38.847Z,100832.59
2023-03-16T00:49:16.820Z,100827.81
2023-03-16T00:51:49.215Z,100827.81
2023-03-16T00:54:20.525Z,100818.97
2023-03-16T00:56:51.765Z,100825.34
2023-03-16T00:59:22.464Z,100818.13
2023-03-16T01:01:55.231Z,100822.06
2023-03-16T01:04:26.346Z,100819.63
2023-03-16T01:06:56.866Z,100823.25
2023-03-16T01:09:27.355Z,100822.44
2023-03-16T01:11:57.041Z,100831.63
2023-03-16T01:14:27.636Z,100833.63
2023-03-16T01:17:00.362Z,100828.03
2023-03-16T01:19:36.388Z,100835.59
2023-03-16T01:22:07.234Z,100837.59
2023-03-16T01:24:38.296Z,100840.72
2023-03-16T01:27:09.346Z,100849.13
2023-03-16T01:29:40.380Z,100844.69
2023-03-16T01:32:13.220Z,100846.66
2023-03-16T01:34:43.928Z,100846.66
2023-03-16T01:37:14.305Z,100843.03
2023-03-16T01:39:53.216Z,100835.47
2023-03-16T01:42:24.546Z,100832.66
2023-03-16T01:45:02.079Z,100841.06
2023-03-16T01:47:38.599Z,100833.50
2023-03-16T01:50:09.876Z,100836.28
2023-03-16T01:52:42.731Z,100835.81
2023-03-16T01:55:15.923Z,100834.16
2023-03-16T01:57:50.225Z,100838.13
2023-03-16T02:00:25.316Z,100830.88
2023-03-16T02:03:02.666Z,100833.69
2023-03-16T02:05:42.668Z,100832.88
2023-03-16T02:08:14.771Z,100820.06
2023-03-16T02:10:47.818Z,100827.59
2023-03-16T02:13:19.247Z,100831.25
2023-03-16T02:15:49.795Z,100829.59
2023-03-16T02:18:23.596Z,100828.81
2023-03-16T02:21:05.719Z,100826.81
2023-03-16T02:23:35.882Z,100827.59
2023-03-16T02:26:17.271Z,100831.25
2023-03-16T02:28:58.016Z,100825.16
2023-03-16T02:31:30.967Z,100836.34
2023-03-16T02:34:03.267Z,100833.56
2023-03-16T02:36:36.099Z,100838.34
2023-03-16T02:39:06.880Z,100844.75
2023-03-16T02:41:37.535Z,100831.91
2023-03-16T02:44:16.570Z,100835.53
2023-03-16T02:47:02.691Z,100820.25
2023-03-16T02:49:39.324Z,100813.00
2023-03-16T02:52:10.638Z,100825.72
2023-03-16T02:54:41.998Z,100823.63
2023-03-16T02:57:12.979Z,100821.97
2023-03-16T02:59:43.058Z,100822.28
2023-03-16T03:02:15.870Z,100829.88
2023-03-16T03:04:47.167Z,100831.84
2023-03-16T03:07:19.069Z,100841.41
2023-03-16T03:09:49.558Z,100842.22
2023-03-16T03:12:20.165Z,100847.00
2023-03-16T03:14:50.651Z,100836.16
2023-03-16T03:17:30.598Z,100844.53
2023-03-16T03:20:02.827Z,100856.56
2023-03-16T03:22:32.730Z,100859.66
2023-03-16T03:25:03.340Z,100849.63
2023-03-16T03:27:33.675Z,100846.03
2023-03-16T03:30:04.478Z,100850.81
2023-03-16T03:32:37.243Z,100843.59
2023-03-16T03:35:09.094Z,100849.19
2023-03-16T03:37:39.460Z,100854.78
2023-03-16T03:40:13.869Z,100851.97
2023-03-16T03:42:46.833Z,100853.94
2023-03-16T03:45:18.987Z,100855.09
2023-03-16T03:47:51.605Z,100863.50
2023-03-16T03:50:22.311Z,100858.72
2023-03-16T03:52:53.031Z,100859.88
2023-03-16T03:55:23.793Z,100869.91
2023-03-16T03:57:54.337Z,100862.34
2023-03-16T04:00:25.164Z,100861.53
2023-03-16T04:02:57.783Z,100864.31
2023-03-16T04:05:28.892Z,100863.81
2023-03-16T04:07:59.068Z,100861.38
2023-03-16T04:10:31.782Z,100863.31
2023-03-16T04:13:02.885Z,100867.28
2023-03-16T04:15:34.957Z,100869.25
2023-03-16T04:18:07.123Z,100860.88
2023-03-16T04:20:38.447Z,100858.88
2023-03-16T04:23:09.532Z,100863.19
2023-03-16T04:25:40.953Z,100859.91
2023-03-16T04:28:11.394Z,100862.22
2023-03-16T04:30:43.456Z,100866.66
2023-03-16T04:33:15.588Z,100864.19
2023-03-16T04:35:47.170Z,100874.56
2023-03-16T04:38:17.569Z,100869.78
2023-03-16T04:40:48.234Z,100872.25
2023-03-16T04:43:18.876Z,100871.09
2023-03-16T04:45:49.412Z,100881.13
2023-03-16T04:48:21.452Z,100882.41
2023-03-16T04:50:52.002Z,100884.88
2023-03-16T04:53:22.651Z,100887.84
2023-03-16T04:55:53.443Z,100890.44
2023-03-16T04:58:24.876Z,100891.75
2023-03-16T05:00:55.819Z,100894.34
2023-03-16T05:03:28.315Z,100885.41
2023-03-16T05:05:58.848Z,100889.63
2023-03-16T05:08:29.723Z,100889.09
2023-03-16T05:11:00.730Z,100896.13
2023-03-16T05:13:31.229Z,100888.03
2023-03-16T05:16:02.221Z,100879.09
2023-03-16T05:18:35.202Z,100880.13
2023-03-16T05:21:05.270Z,100890.47
2023-03-16T05:23:35.755Z,100873.56
2023-03-16T05:26:06.031Z,100889.50
2023-03-16T05:28:36.472Z,100887.78
2023-03-16T05:31:06.805Z,100885.22
2023-03-16T05:33:39.114Z,100891.91
2023-03-16T05:36:10.731Z,100891.34
2023-03-16T05:38:41.452Z,100901.63
2023-03-16T05:41:12.111Z,100899.91
2023-03-16T05:43:42.682Z,100900.16
2023-03-16T05:46:14.140Z,100893.63
2023-03-16T05:48:46.422Z,100901.47
2023-03-16T05:51:17.621Z,100893.31
2023-03-16T05:53:48.920Z,100892.75
2023-03-16T05:56:19.272Z,100890.63
2023-03-16T05:58:49.622Z,100889.38
2023-03-16T06:01:20.672Z,100904.09
2023-03-16T06:03:54.296Z,100900.81
2023-03-16T06:06:25.677Z,100906.31
2023-03-16T06:08:55.676Z,100900.53
2023-03-16T06:11:26.176Z,100900.47
2023-03-16T06:13:58.669Z,100909.56
2023-03-16T06:16:28.798Z,100897.38
2023-03-16T06:19:01.732Z,100911.28
2023-03-16T06:21:32.001Z,100902.38
2023-03-16T06:24:02.837Z,100905.38
2023-03-16T06:26:32.748Z,100904.06
2023-03-16T06:29:03.081Z,100903.88
2023-03-16T06:31:34.688Z,100901.34
2023-03-16T06:34:06.634Z,100908.41
2023-03-16T06:36:36.510Z,100911.41
2023-03-16T06:39:07.043Z,100910.81
2023-03-16T06:41:38.588Z,100902.59
2023-03-16T06:44:09.522Z,100906.38
2023-03-16T06:46:40.146Z,100902.25
2023-03-16T06:49:11.863Z,100914.50
2023-03-16T06:51:42.334Z,100906.25
2023-03-16T06:54:12.679Z,100908.88
2023-03-16T06:56:44.768Z,100899.47
2023-03-16T06:59:16.704Z,100910.19
2023-03-16T07:01:47.345Z,100914.34
2023-03-16T07:04:20.268Z,100913.72
2023-03-16T07:06:52.047Z,100915.88
2023-03-16T07:09:22.377Z,100911.59
2023-03-16T07:11:53.124Z,100910.13
2023-03-16T07:14:25.222Z,100918.75
2023-03-16T07:16:55.454Z,100908.88
2023-03-16T07:19:27.422Z,100908.28
2023-03-16T07:21:57.163Z,100921.00
2023-03-16T07:24:27.629Z,100917.53
2023-03-16T07:26:58.149Z,100921.69
2023-03-16T07:29:28.936Z,100921.47
2023-03-16T07:32:00.174Z,100926.44
2023-03-16T07:34:32.007Z,100921.75
2023-03-16T07:37:02.319Z,100920.75
2023-03-16T07:39:32.637Z,100918.53
2023-03-16T07:42:03.143Z,100923.50
2023-03-16T07:44:34.491Z,100920.84
2023-03-16T07:47:05.558Z,100919.78
2023-03-16T07:49:38.003Z,100916.72
2023-03-16T07:52:08.801Z,100931.03
2023-03-16T07:54:39.231Z,100927.97
2023-03-16T07:57:09.890Z,100920.47
2023-03-16T07:59:40.322Z,100928.72
2023-03-16T08:02:15.153Z,100928.84
2023-03-16T08:04:49.568Z,100931.41
2023-03-16T08:07:20.311Z,100927.91
2023-03-16T08:09:51.816Z,100930.84
2023-03-16T08:12:22.776Z,100933.78
2023-03-16T08:14:52.984Z,100935.09
2023-03-16T08:17:23.492Z,100929.13
2023-03-16T08:19:56.137Z,100927.63
2023-03-16T08:22:26.826Z,100930.53
2023-03-16T08:24:57.763Z,100924.16
2023-03-16T08:27:29.598Z,100922.66
2023-03-16T08:30:04.995Z,100921.94
2023-03-16T08:32:36.387Z,100904.66
2023-03-16T08:35:11.165Z,100916.00
2023-03-16T08:37:41.192Z,100913.59
2023-03-16T08:40:14.371Z,100902.00
2023-03-16T08:42:45.566Z,100913.75
2023-03-16T08:45:16.102Z,100908.56
2023-03-16T08:47:46.832Z,100915.53
2023-03-16T08:50:20.584Z,100912.78
2023-03-16T08:52:51.368Z,100917.28
2023-03-16T08:55:22.404Z,100914.50
2023-03-16T08:57:53.451Z,100910.53
2023-03-16T09:00:25.474Z,100908.56
2023-03-16T09:02:56.092Z,100912.63
2023-03-16T09:05:28.726Z,100905.81
2023-03-16T09:07:59.610Z,100913.91
2023-03-16T09:10:32.785Z,100899.00
2023-03-16T09:13:03.251Z,100898.25
2023-03-16T09:15:34.097Z,100893.44
2023-03-16T09:18:04.841Z,100891.03
2023-03-16T09:20:37.402Z,100892.25
2023-03-16T09:23:08.314Z,100887.44
2023-03-16T09:25:38.991Z,100887.03
2023-03-16T09:28:09.010Z,100889.50
2023-03-16T09:30:40.521Z,100882.63
2023-03-16T09:33:11.503Z,100879.78
2023-03-16T09:35:44.098Z,100879.38
2023-03-16T09:38:14.264Z,100874.94
2023-03-16T09:40:46.940Z,100887.88
2023-03-16T09:43:43.614Z,100874.94
2023-03-16T09:46:23.899Z,100875.28
2023-03-16T09:48:56.350Z,100872.47
2023-03-16T09:51:40.616Z,100873.72
2023-03-16T09:54:26.894Z,100876.16
2023-03-16T09:56:59.809Z,100872.56
2023-03-16T09:59:30.723Z,100879.06
2023-03-16T10:02:36.114Z,100869.78
2023-03-16T10:05:12.702Z,100868.56
2023-03-16T10:08:00.621Z,100871.75
2023-03-16T10:10:55.764Z,100867.66
2023-03-16T10:13:39.163Z,100855.50
2023-03-16T10:16:17.763Z,100851.88
2023-03-16T10:18:52.747Z,100844.56
2023-03-16T10:21:25.098Z,100853.50
2023-03-16T10:24:04.638Z,100838.16
2023-03-16T10:26:44.678Z,100834.91
2023-03-16T10:29:17.016Z,100839.78
2023-03-16T10:31:47.745Z,100836.94
2023-03-16T10:34:18.332Z,100830.91
2023-03-16T10:36:49.371Z,100828.50
2023-03-16T10:39:21.525Z,100828.53
2023-03-16T10:41:59.417Z,100835.00
2023-03-16T10:44:32.453Z,100832.56
2023-03-16T10:47:06.712Z,100825.25
2023-03-16T10:49:42.712Z,100829.25
2023-03-16T10:52:21.038Z,100828.06
2023-03-16T10:54:59.324Z,100826.03
2023-03-16T10:57:34.256Z,100825.25
2023-03-16T11:00:21.650Z,100826.44
2023-03-16T11:02:54.671Z,100825.22
2023-03-16T11:05:35.154Z,100820.75
2023-03-16T11:08:12.520Z,100818.31
2023-03-16T11:10:55.955Z,100819.53
2023-03-16T11:13:35.668Z,100815.06
2023-03-16T11:16:24.289Z,100805.34
2023-03-16T11:18:59.897Z,100806.91
2023-03-16T11:21:42.884Z,100794.78
2023-03-16T11:24:25.712Z,100805.28
2023-03-16T11:27:03.813Z,100800.06
2023-03-16T11:29:51.722Z,100799.25
2023-03-16T11:32:29.050Z,100794.41
2023-03-16T11:34:59.085Z,100786.75
2023-03-16T11:37:49.587Z,100783.50
2023-03-16T11:40:38.868Z,100785.16
2023-03-16T11:43:45.376Z,100779.88
2023-03-16T11:46:23.169Z,100777.06
2023-03-16T11:49:34.131Z,100777.84
2023-03-16T11:52:17.897Z,100781.13
2023-03-16T11:55:07.849Z,100785.56
2023-03-16T11:57:56.571Z,100772.22
2023-03-16T12:00:47.260Z,100785.19
2023-03-16T12:04:02.477Z,100778.72
2023-03-16T12:07:03.361Z,100784.38
2023-03-16T12:10:14.261Z,100767.81
2023-03-16T12:13:22.602Z,100769.41
2023-03-16T12:16:00.063Z,100776.66
2023-03-16T12:18:46.199Z,100768.59
2023-03-16T12:21:24.868Z,100765.78
2023-03-16T12:23:57.878Z,100764.94
2023-03-16T12:26:33.943Z,100771.03
2023-03-16T12:29:21.468Z,100783.19
2023-03-16T12:32:04.868Z,100771.44
2023-03-16T12:34:44.012Z,100782.75
2023-03-16T12:37:36.453Z,100775.06
2023-03-16T12:40:34.183Z,100777.47
2023-03-16T12:43:38.146Z,100771.00
2023-03-16T12:46:14.798Z,100772.59
2023-03-16T12:48:54.638Z,100772.97
2023-03-16T12:51:37.144Z,100775.41
2023-03-16T12:54:09.297Z,100775.34
2023-03-16T12:56:49.355Z,100774.94
2023-03-16T12:59:23.169Z,100769.63
2023-03-16T13:02:01.228Z,100770.38
2023-03-16T13:04:41.146Z,100766.72
2023-03-16T13:07:20.684Z,100772.34
2023-03-16T13:09:56.390Z,100771.09
2023-03-16T13:12:31.975Z,100773.88
2023-03-16T13:15:02.895Z,100770.22
2023-03-16T13:17:37.231Z,100778.22
2023-03-16T13:20:31.770Z,100770.09
2023-03-16T13:23:24.459Z,100761.97
2023-03-16T13:26:18.071Z,100757.47
2023-03-16T13:28:55.247Z,100746.50
2023-03-16T13:31:35.432Z,100755.38
2023-03-16T13:34:09.463Z,100748.50
2023-03-16T13:36:41.461Z,100746.84
2023-03-16T13:39:21.239Z,100746.81
2023-03-16T13:42:17.197Z,100750.81
2023-03-16T13:44:48.411Z,100753.59
2023-03-16T13:47:21.737Z,100753.16
2023-03-16T13:49:56.748Z,100751.09
2023-03-16T13:52:32.636Z,100746.19
2023-03-16T13:55:08.393Z,100757.44
2023-03-16T13:57:43.345Z,100751.75
2023-03-16T14:00:21.591Z,100745.69
2023-03-16T14:02:56.664Z,100750.09
2023-03-16T14:05:30.970Z,100742.34
2023-03-16T14:08:05.291Z,100756.84
2023-03-16T14:10:40.719Z,100755.97
2023-03-16T14:13:26.194Z,100759.59
2023-03-16T14:15:58.052Z,100763.19
2023-03-16T14:18:37.698Z,100768.38
2023-03-16T14:21:12.522Z,100759.88
2023-03-16T14:23:47.997Z,100758.19
2023-03-16T14:26:21.357Z,100754.50
2023-03-16T14:29:07.352Z,100763.34
2023-03-16T14:31:41.326Z,100759.69
2023-03-16T14:34:30.843Z,100760.44
2023-03-16T14:37:12.297Z,100767.66
2023-03-16T14:39:46.160Z,100766.38
2023-03-16T14:42:29.727Z,100765.97
2023-03-16T14:45:02.597Z,100765.91
2023-03-16T14:47:43.756Z,100759.84
2023-03-16T14:50:21.014Z,100764.22
2023-03-16T14:52:52.603Z,100776.66
2023-03-16T14:55:26.284Z,100764.91
2023-03-16T14:57:57.926Z,100770.50
2023-03-16T15:00:29.429Z,100757.94
2023-03-16T15:03:08.480Z,100762.34
2023-03-16T15:05:42.767Z,100774.38
2023-03-16T15:08:22.086Z,100766.31
2023-03-16T15:10:54.758Z,100768.69
2023-03-16T15:13:53.438Z,100764.63
2023-03-16T15:16:24.820Z,100763.38
2023-03-16T15:18:54.940Z,100767.38
2023-03-16T15:21:44.421Z,100772.19
2023-03-16T15:24:15.486Z,100766.13
2023-03-16T15:26:48.524Z,100758.44
2023-03-16T15:29:20.160Z,100770.91
2023-03-16T15:31:53.394Z,100762.78
2023-03-16T15:34:24.941Z,100762.00
2023-03-16T15:36:55.517Z,100762.38
2023-03-16T15:39:28.428Z,100759.56
2023-03-16T15:42:01.812Z,100757.09
2023-03-16T15:44:32.154Z,100751.03
2023-03-16T15:47:03.561Z,100745.75
2023-03-16T15:49:45.098Z,100756.59
2023-03-16T15:52:34.489Z,100749.72
2023-03-16T15:55:08.232Z,100747.28
2023-03-16T15:57:40.807Z,100752.09
2023-03-16T16:00:31.108Z,100749.66
2023-03-16T16:03:03.341Z,100746.78
2023-03-16T16:05:34.728Z,100745.94
2023-03-16T16:08:04.823Z,100749.94
2023-03-16T16:10:36.326Z,100747.53
2023-03-16T16:13:07.731Z,100745.88
2023-03-16T16:15:39.397Z,100742.63
2023-03-16T16:18:30.957Z,100747.84
2023-03-16T16:21:04.399Z,100746.56
2023-03-16T16:23:37.477Z,100736.06
2023-03-16T16:26:20.864Z,100731.63
2023-03-16T16:28:53.358Z,100730.72
2023-03-16T16:31:25.605Z,100733.94
2023-03-16T16:33:56.641Z,100737.09
2023-03-16T16:36:26.866Z,100731.81
2023-03-16T16:38:57.672Z,100732.22
2023-03-16T16:41:32.713Z,100732.56
2023-03-16T16:44:08.756Z,100734.13
2023-03-16T16:46:44.263Z,100738.53
2023-03-16T16:49:20.083Z,100726.81
2023-03-16T16:51:50.488Z,100732.00
2023-03-16T16:54:24.053Z,100729.56
2023-03-16T16:56:58.454Z,100736.78
2023-03-16T16:59:36.298Z,100741.97
2023-03-16T17:02:25.645Z,100739.88
2023-03-16T17:04:57.310Z,100739.81
2023-03-16T17:07:28.236Z,100735.75
2023-03-16T17:09:58.520Z,100735.31
2023-03-16T17:12:30.021Z,100734.50
2023-03-16T17:15:02.123Z,100734.06
2023-03-16T17:17:32.910Z,100743.69
2023-03-16T17:20:06.332Z,100739.25
2023-03-16T17:22:36.974Z,100746.44
2023-03-16T17:25:08.648Z,100744.81
2023-03-16T17:27:39.474Z,100743.19
2023-03-16T17:30:23.893Z,100747.56
2023-03-16T17:32:55.315Z,100747.91
2023-03-16T17:35:26.247Z,100740.69
2023-03-16T17:37:57.656Z,100743.03
2023-03-16T17:40:29.071Z,100747.03
2023-03-16T17:42:59.588Z,100746.59
2023-03-16T17:45:31.894Z,100744.97
2023-03-16T17:48:02.829Z,100740.91
2023-03-16T17:50:34.353Z,100746.06
2023-03-16T17:53:05.150Z,100739.19
2023-03-16T17:55:36.061Z,100737.94
2023-03-16T17:58:06.353Z,100743.44
2023-03-16T18:00:40.027Z,100745.00
2023-03-16T18:03:17.947Z,100732.44
2023-03-16T18:05:48.827Z,100737.16
2023-03-16T18:08:25.944Z,100737.09
2023-03-16T18:11:00.089Z,100729.75
2023-03-16T18:13:35.694Z,100738.50
2023-03-16T18:16:10.563Z,100735.56
2023-03-16T18:18:44.642Z,100733.88
2023-03-16T18:21:22.098Z,100726.53
2023-03-16T18:23:53.420Z,100729.66
2023-03-16T18:26:25.282Z,100735.56
2023-03-16T18:28:55.973Z,100741.09
2023-03-16T18:31:31.442Z,100735.41
2023-03-16T18:34:05.623Z,100736.50
2023-03-16T18:36:38.813Z,100735.59
2023-03-16T18:39:17.716Z,100738.69
2023-03-16T18:41:48.487Z,100737.75
2023-03-16T18:44:22.542Z,100734.88
2023-03-16T18:47:03.595Z,100734.00
2023-03-16T18:49:38.088Z,100731.06
2023-03-16T18:52:21.319Z,100723.38
2023-03-16T18:54:53.406Z,100724.91
2023-03-16T18:57:25.506Z,100728.19
2023-03-16T18:59:56.715Z,100735.09
2023-03-16T19:02:45.716Z,100727.91
2023-03-16T19:05:20.541Z,100729.53
2023-03-16T19:07:54.352Z,100727.91
2023-03-16T19:10:29.899Z,100721.84
2023-03-16T19:13:01.798Z,100716.94
2023-03-16T19:15:36.081Z,100715.28
2023-03-16T19:18:08.373Z,100715.75
2023-03-16T19:20:38.516Z,100715.75
2023-03-16T19:23:18.748Z,100712.22
2023-03-16T19:25:49.722Z,100717.47
2023-03-16T19:28:34.166Z,100718.72
2023-03-16T19:31:08.241Z,100717.53
2023-03-16T19:33:40.879Z,100722.00
2023-03-16T19:36:18.924Z,100716.81
2023-03-16T19:38:50.862Z,100713.63
2023-03-16T19:41:27.694Z,100715.66
2023-03-16T19:44:00.942Z,100717.28
2023-03-16T19:46:33.396Z,100716.44
2023-03-16T19:49:10.296Z,100720.88
2023-03-16T19:51:40.751Z,100711.66
2023-03-16T19:54:22.525Z,100720.09
2023-03-16T19:56:54.088Z,100708.84
2023-03-16T19:59:33.868Z,100712.03
2023-03-16T20:02:04.572Z,100710.41
2023-03-16T20:04:38.470Z,100705.56
2023-03-16T20:07:17.420Z,100706.41
2023-03-16T20:09:48.153Z,100700.31
2023-03-16T20:12:26.458Z,100703.94
2023-03-16T20:14:58.340Z,100704.31
2023-03-16T20:17:31.112Z,100703.50
2023-03-16T20:20:03.889Z,100703.88
2023-03-16T20:22:34.359Z,100705.03
2023-03-16T20:25:05.699Z,100706.22
2023-03-16T20:27:35.869Z,100701.78
2023-03-16T20:30:07.316Z,100701.78
2023-03-16T20:32:40.421Z,100700.13
2023-03-16T20:35:23.757Z,100693.72
2023-03-16T20:37:54.992Z,100697.72
2023-03-16T20:40:26.284Z,100693.25
2023-03-16T20:42:56.728Z,100695.63
2023-03-16T20:45:31.289Z,100686.75
2023-03-16T20:48:02.245Z,100691.56
2023-03-16T20:50:34.644Z,100690.75
2023-03-16T20:53:04.877Z,100687.47
2023-03-16T20:55:35.343Z,100690.28
2023-03-16T20:58:08.209Z,100685.84
2023-03-16T21:00:42.323Z,100682.22
2023-03-16T21:03:21.149Z,100687.41
2023-03-16T21:05:54.528Z,100682.94
2023-03-16T21:08:25.082Z,100677.72
2023-03-16T21:10:58.032Z,100674.06
2023-03-16T21:13:33.883Z,100676.41
2023-03-16T21:16:09.175Z,100673.16
2023-03-16T21:18:39.717Z,100667.09
2023-03-16T21:21:16.928Z,100673.06
2023-03-16T21:23:47.767Z,100670.63
2023-03-16T21:26:22.293Z,100671.00
2023-03-16T21:28:58.983Z,100667.75
2023-03-16T21:31:29.991Z,100671.28
2023-03-16T21:34:00.988Z,100657.94
2023-03-16T21:36:37.567Z,100659.50
2023-03-16T21:39:22.686Z,100661.44
2023-03-16T21:41:53.153Z,100657.69
2023-03-16T21:44:23.833Z,100658.41
2023-03-16T21:46:54.431Z,100649.88
2023-03-16T21:49:25.919Z,100655.03
2023-03-16T21:51:58.652Z,100655.41
2023-03-16T21:54:28.238Z,100655.41
2023-03-16T21:56:59.939Z,100649.78
2023-03-16T21:59:30.531Z,100642.53
2023-03-16T22:02:02.177Z,100637.75
2023-03-16T22:04:37.426Z,100636.53
2023-03-16T22:07:14.416Z,100636.22
2023-03-16T22:09:45.630Z,100641.00
2023-03-16T22:12:16.579Z,100637.84
2023-03-16T22:14:47.004Z,100640.28
2023-03-16T22:17:24.676Z,100639.91
2023-03-16T22:19:55.169Z,100635.16
2023-03-16T22:22:27.774Z,100636.78
2023-03-16T22:24:57.888Z,100639.22
2023-03-16T22:27:28.351Z,100634.44
2023-03-16T22:29:58.332Z,100635.22
2023-03-16T22:32:29.086Z,100629.22
2023-03-16T22:35:00.269Z,100629.22
2023-03-16T22:37:32.994Z,100632.88
2023-03-16T22:40:04.813Z,100632.03
2023-03-16T22:42:38.652Z,100632.03
2023-03-16T22:45:22.579Z,100629.59
2023-03-16T22:47:53.439Z,100618.28
2023-03-16T22:50:26.124Z,100618.97
2023-03-16T22:53:03.412Z,100621.69
2023-03-16T22:55:38.033Z,100621.25
2023-03-16T22:58:16.186Z,100616.38
2023-03-16T23:00:47.376Z,100613.13
2023-03-16T23:03:22.433Z,100615.91
2023-03-16T23:05:53.048Z,100612.66
2023-03-16T23:08:27.307Z,100612.66
2023-03-16T23:10:57.460Z,100613.47
2023-03-16T23:13:29.421Z,100608.22
2023-03-16T23:15:59.727Z,100611.03
2023-03-16T23:18:29.831Z,100610.22
2023-03-16T23:21:00.314Z,100611.41
2023-03-16T23:23:32.276Z,100613.38
2023-03-16T23:26:02.639Z,100608.13
2023-03-16T23:28:33.419Z,100603.31
2023-03-16T23:31:03.708Z,100600.88
2023-03-16T23:33:34.580Z,100608.13
2023-03-16T23:36:05.006Z,100597.63
2023-03-16T23:38:37.292Z,100592.81
2023-03-16T23:41:08.054Z,100594.00
2023-03-16T23:43:38.589Z,100591.19
2023-03-16T23:46:09.439Z,100595.97
2023-03-16T23:48:41.911Z,100592.00
2023-03-16T23:51:22.841Z,100591.19
2023-03-16T23:53:54.817Z,100588.38
2023-03-16T23:56:26.648Z,100592.00
2023-03-16T23:58:58.311Z,100597.63
